Blue Ridge Highway — 3FEY4 — position and weather

sailwx.info

Track history (hours):
 
Tides and Currents Weather Stations Pressure Air Temp Water Temp Dewpoint Dewpoint Depression Visibility Wind Speed Wind Dir Waves Ship Positions

Blue Ridge Highway

Last reported at 2017-May-19 23:24 UTC. Time now 2017-May-22 19:23 UTC.
Position S 34°48' E 138°22'.

Length 180 m; draft 8.1 m.

Type: Cargo ship. MMSI: 355558000.

Date/timePositionNaut miles runAvg speedWind from/ knotsBaromVisibWave heightAir tempDewpointWater temp
2017-May-19 23:24S 34°48' E 138°22'3 0.1
2017-May-19 00:57S 34°48' E 138°25'15 7.6
2017-May-18 22:55S 34°60' E 138°13'0 0.5
2017-May-18 22:30S 34°60' E 138°13'0 0.5
2017-May-18 22:00S 34°59' E 138°13'37111.4
2017-May-17 13:31S 38°01' E 144°55'815.1
2017-May-17 13:00S 37°54' E 144°56'4 6.8
2017-May-17 12:29S 37°50' E 144°54'0 0.0
2017-May-17 11:59S 37°50' E 144°54'0 0.0
2017-May-16 18:17S 37°50' E 144°54'0 0.0
2017-May-16 17:50S 37°50' E 144°54'0 0.0
2017-May-16 17:26S 37°50' E 144°54'0 0.0
2017-May-16 16:59S 37°50' E 144°54'0 0.0
2017-May-16 16:08S 37°50' E 144°54'0 0.0
2017-May-16 15:56S 37°50' E 144°54'0 0.0
2017-May-16 15:29S 37°50' E 144°54'0 0.0
2017-May-16 14:59S 37°50' E 144°54'0 0.0
2017-May-16 14:29S 37°50' E 144°54'0 0.0
2017-May-16 12:53S 37°50' E 144°54'0 0.0
2017-May-16 12:29S 37°50' E 144°54'0 0.0
2017-May-16 11:50S 37°50' E 144°54'1 0.2
2017-May-16 05:13S 37°51' E 144°55'3 8.4
2017-May-16 04:52S 37°54' E 144°56'18210.0
2017-May-15 10:33S 38°26' E 148°44'114.1
2017-May-15 10:30S 38°25' E 148°45'715.2
2017-May-15 10:00S 38°21' E 148°53'814.9
2017-May-15 09:30S 38°16' E 149°00'815.3
2017-May-15 09:00S 38°12' E 149°08'280 6.7
2017-May-13 15:28S 33°57' E 151°30'715.7
2017-May-13 15:00S 33°51' E 151°35'816.2
2017-May-13 14:30S 33°44' E 151°41'3416.8
2017-May-13 12:30S 33°17' E 152°04'816.7
2017-May-13 12:01S 33°10' E 152°10'816.7
2017-May-13 11:31S 33°03' E 152°15'816.8
2017-May-13 11:00S 32°56' E 152°21'816.9
2017-May-13 10:30S 32°49' E 152°27'917.1
2017-May-13 10:01S 32°42' E 152°33'816.9
2017-May-13 09:31S 32°35' E 152°39'1116.8
2017-May-13 08:53S 32°26' E 152°45'26215.9
2017-May-12 16:24S 28°10' E 153°48'614.6
2017-May-12 16:00S 28°04' E 153°48'714.9
2017-May-12 15:30S 27°57' E 153°48'714.8
2017-May-12 15:00S 27°50' E 153°47'714.4
2017-May-12 14:31S 27°43' E 153°46'1414.2
2017-May-12 13:30S 27°29' E 153°44'714.3
2017-May-12 13:00S 27°21' E 153°43'1414.0
2017-May-12 12:01S 27°09' E 153°37'013.9
2017-May-12 12:01S 27°08' E 153°37'28 2.0
2017-May-11 21:46S 27°23' E 153°10'1 1.9
2017-May-11 21:29S 27°22' E 153°10'5 9.8
2017-May-11 21:00S 27°18' E 153°13'715.0
2017-May-11 20:30S 27°14' E 153°20'  
Track history (hours):
 
Tides and Currents Weather Stations Pressure Air Temp Water Temp Dewpoint Dewpoint Depression Visibility Wind Speed Wind Dir Waves Ship Positions

Blue Ridge Highway

Last reported at 2017-May-19 23:24 UTC. Time now 2017-May-22 19:23 UTC.
Position S 34°48' E 138°22'.

Length 180 m; draft 8.1 m.

Type: Cargo ship. MMSI: 355558000.

Date/timePositionNaut miles runAvg speedWind from/ knotsBaromVisibWave heightAir tempDewpointWater temp
2017-May-19 23:24S 34°48' E 138°22'3 0.1
2017-May-19 00:57S 34°48' E 138°25'15 7.6
2017-May-18 22:55S 34°60' E 138°13'0 0.5
2017-May-18 22:30S 34°60' E 138°13'0 0.5
2017-May-18 22:00S 34°59' E 138°13'37111.4
2017-May-17 13:31S 38°01' E 144°55'815.1
2017-May-17 13:00S 37°54' E 144°56'4 6.8
2017-May-17 12:29S 37°50' E 144°54'0 0.0
2017-May-17 11:59S 37°50' E 144°54'0 0.0
2017-May-16 18:17S 37°50' E 144°54'0 0.0
2017-May-16 17:50S 37°50' E 144°54'0 0.0
2017-May-16 17:26S 37°50' E 144°54'0 0.0
2017-May-16 16:59S 37°50' E 144°54'0 0.0
2017-May-16 16:08S 37°50' E 144°54'0 0.0
2017-May-16 15:56S 37°50' E 144°54'0 0.0
2017-May-16 15:29S 37°50' E 144°54'0 0.0
2017-May-16 14:59S 37°50' E 144°54'0 0.0
2017-May-16 14:29S 37°50' E 144°54'0 0.0
2017-May-16 12:53S 37°50' E 144°54'0 0.0
2017-May-16 12:29S 37°50' E 144°54'0 0.0
2017-May-16 11:50S 37°50' E 144°54'1 0.2
2017-May-16 05:13S 37°51' E 144°55'3 8.4
2017-May-16 04:52S 37°54' E 144°56'18210.0
2017-May-15 10:33S 38°26' E 148°44'114.1
2017-May-15 10:30S 38°25' E 148°45'715.2
2017-May-15 10:00S 38°21' E 148°53'814.9
2017-May-15 09:30S 38°16' E 149°00'815.3
2017-May-15 09:00S 38°12' E 149°08'280 6.7
2017-May-13 15:28S 33°57' E 151°30'715.7
2017-May-13 15:00S 33°51' E 151°35'816.2
2017-May-13 14:30S 33°44' E 151°41'3416.8
2017-May-13 12:30S 33°17' E 152°04'816.7
2017-May-13 12:01S 33°10' E 152°10'816.7
2017-May-13 11:31S 33°03' E 152°15'816.8
2017-May-13 11:00S 32°56' E 152°21'816.9
2017-May-13 10:30S 32°49' E 152°27'917.1
2017-May-13 10:01S 32°42' E 152°33'816.9
2017-May-13 09:31S 32°35' E 152°39'1116.8
2017-May-13 08:53S 32°26' E 152°45'26215.9
2017-May-12 16:24S 28°10' E 153°48'614.6
2017-May-12 16:00S 28°04' E 153°48'714.9
2017-May-12 15:30S 27°57' E 153°48'714.8
2017-May-12 15:00S 27°50' E 153°47'714.4
2017-May-12 14:31S 27°43' E 153°46'1414.2
2017-May-12 13:30S 27°29' E 153°44'714.3
2017-May-12 13:00S 27°21' E 153°43'1414.0
2017-May-12 12:01S 27°09' E 153°37'013.9
2017-May-12 12:01S 27°08' E 153°37'28 2.0
2017-May-11 21:46S 27°23' E 153°10'1 1.9
2017-May-11 21:29S 27°22' E 153°10'5 9.8
2017-May-11 21:00S 27°18' E 153°13'715.0
2017-May-11 20:30S 27°14' E 153°20'  

Dump ship's entire track history